sensor_id;sensor_type;location;lat;lon;timestamp;P1;durP1;ratioP1;P2;durP2;ratioP2
15171;SDS011;7686;52.184;9.280;2023-02-26T00:01:21;1.20;;;0.60;;
15171;SDS011;7686;52.184;9.280;2023-02-26T00:03:50;0.93;;;0.55;;
15171;SDS011;7686;52.184;9.280;2023-02-26T00:06:18;0.57;;;0.40;;
15171;SDS011;7686;52.184;9.280;2023-02-26T00:08:45;0.70;;;0.60;;
15171;SDS011;7686;52.184;9.280;2023-02-26T00:11:12;0.80;;;0.57;;
15171;SDS011;7686;52.184;9.280;2023-02-26T00:13:40;1.38;;;0.60;;
15171;SDS011;7686;52.184;9.280;2023-02-26T00:18:53;0.73;;;0.47;;
15171;SDS011;7686;52.184;9.280;2023-02-26T00:21:22;0.55;;;0.50;;
15171;SDS011;7686;52.184;9.280;2023-02-26T00:23:50;0.45;;;0.45;;
15171;SDS011;7686;52.184;9.280;2023-02-26T00:26:16;0.82;;;0.68;;
15171;SDS011;7686;52.184;9.280;2023-02-26T00:28:43;1.00;;;0.60;;
15171;SDS011;7686;52.184;9.280;2023-02-26T00:31:11;0.73;;;0.50;;
15171;SDS011;7686;52.184;9.280;2023-02-26T00:33:40;0.57;;;0.43;;
15171;SDS011;7686;52.184;9.280;2023-02-26T00:39:33;0.75;;;0.43;;
15171;SDS011;7686;52.184;9.280;2023-02-26T00:42:13;0.95;;;0.50;;
15171;SDS011;7686;52.184;9.280;2023-02-26T00:44:40;0.52;;;0.50;;
15171;SDS011;7686;52.184;9.280;2023-02-26T00:52:45;0.52;;;0.50;;
15171;SDS011;7686;52.184;9.280;2023-02-26T00:55:14;0.82;;;0.50;;
15171;SDS011;7686;52.184;9.280;2023-02-26T00:57:41;0.70;;;0.60;;
15171;SDS011;7686;52.184;9.280;2023-02-26T01:00:08;0.52;;;0.45;;
15171;SDS011;7686;52.184;9.280;2023-02-26T01:02:36;0.90;;;0.70;;
15171;SDS011;7686;52.184;9.280;2023-02-26T01:05:04;1.38;;;0.60;;
15171;SDS011;7686;52.184;9.280;2023-02-26T01:07:42;0.85;;;0.55;;
15171;SDS011;7686;52.184;9.280;2023-02-26T01:10:31;0.63;;;0.60;;
15171;SDS011;7686;52.184;9.280;2023-02-26T01:12:59;0.50;;;0.45;;
15171;SDS011;7686;52.184;9.280;2023-02-26T01:15:26;0.60;;;0.50;;
15171;SDS011;7686;52.184;9.280;2023-02-26T01:20:39;0.57;;;0.43;;
15171;SDS011;7686;52.184;9.280;2023-02-26T01:23:22;0.40;;;0.40;;
15171;SDS011;7686;52.184;9.280;2023-02-26T01:26:05;0.60;;;0.50;;
15171;SDS011;7686;52.184;9.280;2023-02-26T01:28:37;0.60;;;0.38;;
15171;SDS011;7686;52.184;9.280;2023-02-26T01:31:04;0.50;;;0.50;;
15171;SDS011;7686;52.184;9.280;2023-02-26T01:33:43;0.90;;;0.60;;
15171;SDS011;7686;52.184;9.280;2023-02-26T01:36:20;0.80;;;0.50;;
15171;SDS011;7686;52.184;9.280;2023-02-26T01:46:56;0.63;;;0.47;;
15171;SDS011;7686;52.184;9.280;2023-02-26T01:49:27;0.80;;;0.50;;
15171;SDS011;7686;52.184;9.280;2023-02-26T01:52:01;0.50;;;0.50;;
15171;SDS011;7686;52.184;9.280;2023-02-26T01:54:30;0.50;;;0.50;;
15171;SDS011;7686;52.184;9.280;2023-02-26T01:57:03;0.50;;;0.50;;
15171;SDS011;7686;52.184;9.280;2023-02-26T01:59:37;0.73;;;0.50;;
15171;SDS011;7686;52.184;9.280;2023-02-26T02:02:07;0.87;;;0.50;;
15171;SDS011;7686;52.184;9.280;2023-02-26T02:04:36;1.35;;;0.57;;
15171;SDS011;7686;52.184;9.280;2023-02-26T02:07:04;0.93;;;0.50;;
15171;SDS011;7686;52.184;9.280;2023-02-26T02:09:32;0.50;;;0.50;;
15171;SDS011;7686;52.184;9.280;2023-02-26T02:12:16;0.50;;;0.40;;
15171;SDS011;7686;52.184;9.280;2023-02-26T02:15:03;0.50;;;0.50;;
15171;SDS011;7686;52.184;9.280;2023-02-26T02:23:21;0.40;;;0.40;;
15171;SDS011;7686;52.184;9.280;2023-02-26T02:26:09;0.43;;;0.40;;
15171;SDS011;7686;52.184;9.280;2023-02-26T02:29:18;0.50;;;0.47;;
15171;SDS011;7686;52.184;9.280;2023-02-26T02:34:30;0.40;;;0.40;;
15171;SDS011;7686;52.184;9.280;2023-02-26T02:39:56;0.57;;;0.40;;
15171;SDS011;7686;52.184;9.280;2023-02-26T02:42:30;0.30;;;0.30;;
15171;SDS011;7686;52.184;9.280;2023-02-26T02:45:08;0.57;;;0.50;;
15171;SDS011;7686;52.184;9.280;2023-02-26T02:47:43;0.57;;;0.57;;
15171;SDS011;7686;52.184;9.280;2023-02-26T02:50:17;0.60;;;0.40;;
15171;SDS011;7686;52.184;9.280;2023-02-26T02:53:00;0.55;;;0.50;;
15171;SDS011;7686;52.184;9.280;2023-02-26T02:55:53;0.68;;;0.55;;
15171;SDS011;7686;52.184;9.280;2023-02-26T02:58:25;0.98;;;0.60;;
15171;SDS011;7686;52.184;9.280;2023-02-26T03:00:57;0.50;;;0.50;;
15171;SDS011;7686;52.184;9.280;2023-02-26T03:06:00;0.40;;;0.40;;
15171;SDS011;7686;52.184;9.280;2023-02-26T03:08:27;0.57;;;0.57;;
15171;SDS011;7686;52.184;9.280;2023-02-26T03:10:59;0.70;;;0.50;;
15171;SDS011;7686;52.184;9.280;2023-02-26T03:13:26;0.75;;;0.50;;
15171;SDS011;7686;52.184;9.280;2023-02-26T03:18:49;0.43;;;0.40;;
15171;SDS011;7686;52.184;9.280;2023-02-26T03:23:59;0.40;;;0.37;;
15171;SDS011;7686;52.184;9.280;2023-02-26T03:26:48;0.37;;;0.37;;
15171;SDS011;7686;52.184;9.280;2023-02-26T03:29:27;0.40;;;0.40;;
15171;SDS011;7686;52.184;9.280;2023-02-26T03:31:59;0.40;;;0.40;;
15171;SDS011;7686;52.184;9.280;2023-02-26T03:34:33;0.53;;;0.43;;
15171;SDS011;7686;52.184;9.280;2023-02-26T03:37:16;0.55;;;0.47;;
15171;SDS011;7686;52.184;9.280;2023-02-26T03:39:54;1.02;;;0.47;;
15171;SDS011;7686;52.184;9.280;2023-02-26T03:42:34;1.02;;;0.50;;
15171;SDS011;7686;52.184;9.280;2023-02-26T03:45:04;0.40;;;0.40;;
15171;SDS011;7686;52.184;9.280;2023-02-26T03:47:35;0.60;;;0.32;;
15171;SDS011;7686;52.184;9.280;2023-02-26T03:50:06;0.38;;;0.38;;
15171;SDS011;7686;52.184;9.280;2023-02-26T03:52:38;0.40;;;0.40;;
15171;SDS011;7686;52.184;9.280;2023-02-26T03:55:10;0.60;;;0.40;;
15171;SDS011;7686;52.184;9.280;2023-02-26T03:57:42;0.55;;;0.40;;
15171;SDS011;7686;52.184;9.280;2023-02-26T04:00:09;0.47;;;0.47;;
15171;SDS011;7686;52.184;9.280;2023-02-26T04:05:31;0.73;;;0.40;;
15171;SDS011;7686;52.184;9.280;2023-02-26T04:08:00;0.40;;;0.40;;
15171;SDS011;7686;52.184;9.280;2023-02-26T04:10:30;0.50;;;0.50;;
15171;SDS011;7686;52.184;9.280;2023-02-26T04:13:05;0.43;;;0.43;;
15171;SDS011;7686;52.184;9.280;2023-02-26T04:15:32;0.65;;;0.50;;
15171;SDS011;7686;52.184;9.280;2023-02-26T04:17:59;0.50;;;0.40;;
15171;SDS011;7686;52.184;9.280;2023-02-26T04:20:25;0.50;;;0.50;;
15171;SDS011;7686;52.184;9.280;2023-02-26T04:22:52;0.50;;;0.50;;
15171;SDS011;7686;52.184;9.280;2023-02-26T04:25:19;3.77;;;0.40;;
15171;SDS011;7686;52.184;9.280;2023-02-26T04:27:46;0.38;;;0.38;;
15171;SDS011;7686;52.184;9.280;2023-02-26T04:30:12;0.73;;;0.50;;
15171;SDS011;7686;52.184;9.280;2023-02-26T04:32:39;1.00;;;0.60;;
15171;SDS011;7686;52.184;9.280;2023-02-26T04:35:05;1.00;;;0.50;;
15171;SDS011;7686;52.184;9.280;2023-02-26T04:37:32;0.32;;;0.32;;
15171;SDS011;7686;52.184;9.280;2023-02-26T04:39:59;0.40;;;0.40;;
15171;SDS011;7686;52.184;9.280;2023-02-26T04:42:26;0.40;;;0.40;;
15171;SDS011;7686;52.184;9.280;2023-02-26T04:44:52;0.63;;;0.50;;
15171;SDS011;7686;52.184;9.280;2023-02-26T04:47:19;0.40;;;0.30;;
15171;SDS011;7686;52.184;9.280;2023-02-26T04:49:46;0.30;;;0.30;;
15171;SDS011;7686;52.184;9.280;2023-02-26T04:52:12;0.40;;;0.40;;
15171;SDS011;7686;52.184;9.280;2023-02-26T04:54:39;0.30;;;0.30;;
15171;SDS011;7686;52.184;9.280;2023-02-26T04:57:06;0.53;;;0.47;;
15171;SDS011;7686;52.184;9.280;2023-02-26T04:59:33;0.47;;;0.40;;
15171;SDS011;7686;52.184;9.280;2023-02-26T05:01:59;0.80;;;0.43;;
15171;SDS011;7686;52.184;9.280;2023-02-26T05:04:26;0.30;;;0.30;;
15171;SDS011;7686;52.184;9.280;2023-02-26T05:06:53;0.40;;;0.40;;
15171;SDS011;7686;52.184;9.280;2023-02-26T05:09:20;0.50;;;0.50;;
15171;SDS011;7686;52.184;9.280;2023-02-26T05:11:47;0.77;;;0.50;;
15171;SDS011;7686;52.184;9.280;2023-02-26T05:14:14;0.43;;;0.43;;
15171;SDS011;7686;52.184;9.280;2023-02-26T05:16:41;0.63;;;0.40;;
15171;SDS011;7686;52.184;9.280;2023-02-26T05:19:08;0.30;;;0.30;;
15171;SDS011;7686;52.184;9.280;2023-02-26T05:21:35;0.50;;;0.50;;
15171;SDS011;7686;52.184;9.280;2023-02-26T05:24:02;0.40;;;0.30;;
15171;SDS011;7686;52.184;9.280;2023-02-26T05:26:29;0.40;;;0.40;;
15171;SDS011;7686;52.184;9.280;2023-02-26T05:28:55;0.37;;;0.37;;
15171;SDS011;7686;52.184;9.280;2023-02-26T05:31:22;0.40;;;0.30;;
15171;SDS011;7686;52.184;9.280;2023-02-26T05:33:49;0.30;;;0.30;;
15171;SDS011;7686;52.184;9.280;2023-02-26T05:36:15;0.57;;;0.50;;
15171;SDS011;7686;52.184;9.280;2023-02-26T05:38:42;0.60;;;0.50;;
15171;SDS011;7686;52.184;9.280;2023-02-26T05:41:08;0.47;;;0.47;;
15171;SDS011;7686;52.184;9.280;2023-02-26T05:43:35;0.40;;;0.40;;
15171;SDS011;7686;52.184;9.280;2023-02-26T05:46:02;0.40;;;0.23;;
15171;SDS011;7686;52.184;9.280;2023-02-26T05:48:28;0.40;;;0.30;;
15171;SDS011;7686;52.184;9.280;2023-02-26T05:50:55;0.30;;;0.30;;
15171;SDS011;7686;52.184;9.280;2023-02-26T05:53:22;0.43;;;0.40;;
15171;SDS011;7686;52.184;9.280;2023-02-26T05:55:48;0.50;;;0.50;;
15171;SDS011;7686;52.184;9.280;2023-02-26T05:58:15;2.20;;;0.50;;
15171;SDS011;7686;52.184;9.280;2023-02-26T06:00:42;1.80;;;0.50;;
15171;SDS011;7686;52.184;9.280;2023-02-26T06:03:09;0.50;;;0.50;;
15171;SDS011;7686;52.184;9.280;2023-02-26T06:05:35;0.77;;;0.50;;
15171;SDS011;7686;52.184;9.280;2023-02-26T06:08:03;0.30;;;0.30;;
15171;SDS011;7686;52.184;9.280;2023-02-26T06:10:30;0.40;;;0.40;;
15171;SDS011;7686;52.184;9.280;2023-02-26T06:12:57;0.47;;;0.40;;
15171;SDS011;7686;52.184;9.280;2023-02-26T06:15:24;0.40;;;0.40;;
15171;SDS011;7686;52.184;9.280;2023-02-26T06:17:51;1.43;;;0.40;;
15171;SDS011;7686;52.184;9.280;2023-02-26T06:20:17;1.30;;;0.57;;
15171;SDS011;7686;52.184;9.280;2023-02-26T06:22:44;0.30;;;0.30;;
15171;SDS011;7686;52.184;9.280;2023-02-26T06:25:11;1.67;;;0.33;;
15171;SDS011;7686;52.184;9.280;2023-02-26T06:27:37;0.20;;;0.20;;
15171;SDS011;7686;52.184;9.280;2023-02-26T06:30:04;0.63;;;0.40;;
15171;SDS011;7686;52.184;9.280;2023-02-26T06:32:31;0.73;;;0.47;;
15171;SDS011;7686;52.184;9.280;2023-02-26T06:34:58;3.33;;;1.60;;
15171;SDS011;7686;52.184;9.280;2023-02-26T06:37:25;2.72;;;1.60;;
15171;SDS011;7686;52.184;9.280;2023-02-26T06:39:52;4.47;;;2.10;;
15171;SDS011;7686;52.184;9.280;2023-02-26T06:42:19;3.57;;;2.00;;
15171;SDS011;7686;52.184;9.280;2023-02-26T06:44:45;5.67;;;2.20;;
15171;SDS011;7686;52.184;9.280;2023-02-26T06:47:12;3.88;;;2.13;;
15171;SDS011;7686;52.184;9.280;2023-02-26T06:49:38;4.10;;;1.95;;
15171;SDS011;7686;52.184;9.280;2023-02-26T06:52:05;5.10;;;2.10;;
15171;SDS011;7686;52.184;9.280;2023-02-26T06:54:32;3.42;;;1.73;;
15171;SDS011;7686;52.184;9.280;2023-02-26T06:56:59;3.27;;;1.70;;
15171;SDS011;7686;52.184;9.280;2023-02-26T06:59:27;3.55;;;2.00;;
15171;SDS011;7686;52.184;9.280;2023-02-26T07:01:54;3.60;;;2.07;;
15171;SDS011;7686;52.184;9.280;2023-02-26T07:04:22;3.50;;;1.80;;
15171;SDS011;7686;52.184;9.280;2023-02-26T07:06:49;3.10;;;1.58;;
15171;SDS011;7686;52.184;9.280;2023-02-26T07:09:16;3.17;;;1.63;;
15171;SDS011;7686;52.184;9.280;2023-02-26T07:11:44;5.75;;;1.83;;
15171;SDS011;7686;52.184;9.280;2023-02-26T07:14:11;3.50;;;1.75;;
15171;SDS011;7686;52.184;9.280;2023-02-26T07:16:38;4.55;;;1.75;;
15171;SDS011;7686;52.184;9.280;2023-02-26T07:19:04;3.50;;;1.45;;
15171;SDS011;7686;52.184;9.280;2023-02-26T07:21:31;5.05;;;1.50;;
15171;SDS011;7686;52.184;9.280;2023-02-26T07:23:58;4.05;;;1.60;;
15171;SDS011;7686;52.184;9.280;2023-02-26T07:26:24;2.85;;;1.55;;
15171;SDS011;7686;52.184;9.280;2023-02-26T07:28:51;2.70;;;1.17;;
15171;SDS011;7686;52.184;9.280;2023-02-26T07:31:18;3.05;;;1.30;;
15171;SDS011;7686;52.184;9.280;2023-02-26T07:33:45;2.77;;;1.43;;
15171;SDS011;7686;52.184;9.280;2023-02-26T07:36:12;2.72;;;1.42;;
15171;SDS011;7686;52.184;9.280;2023-02-26T07:38:39;2.67;;;1.40;;
15171;SDS011;7686;52.184;9.280;2023-02-26T07:41:05;2.85;;;1.35;;
15171;SDS011;7686;52.184;9.280;2023-02-26T07:43:32;3.35;;;1.20;;
15171;SDS011;7686;52.184;9.280;2023-02-26T07:45:59;3.33;;;1.33;;
15171;SDS011;7686;52.184;9.280;2023-02-26T07:48:25;2.63;;;1.30;;
15171;SDS011;7686;52.184;9.280;2023-02-26T07:50:53;2.20;;;1.27;;
15171;SDS011;7686;52.184;9.280;2023-02-26T07:53:20;2.95;;;1.38;;
15171;SDS011;7686;52.184;9.280;2023-02-26T07:55:47;2.40;;;1.20;;
15171;SDS011;7686;52.184;9.280;2023-02-26T07:58:14;3.50;;;1.38;;
15171;SDS011;7686;52.184;9.280;2023-02-26T08:00:41;2.97;;;1.23;;
15171;SDS011;7686;52.184;9.280;2023-02-26T08:03:07;2.60;;;1.10;;
15171;SDS011;7686;52.184;9.280;2023-02-26T08:05:34;2.17;;;1.13;;
15171;SDS011;7686;52.184;9.280;2023-02-26T08:08:01;3.03;;;1.10;;
15171;SDS011;7686;52.184;9.280;2023-02-26T08:10:28;3.10;;;1.30;;
15171;SDS011;7686;52.184;9.280;2023-02-26T08:12:55;1.50;;;1.00;;
15171;SDS011;7686;52.184;9.280;2023-02-26T08:15:21;2.58;;;1.27;;
15171;SDS011;7686;52.184;9.280;2023-02-26T08:17:50;2.80;;;1.30;;
15171;SDS011;7686;52.184;9.280;2023-02-26T08:20:18;3.72;;;1.20;;
15171;SDS011;7686;52.184;9.280;2023-02-26T08:22:44;2.33;;;0.98;;
15171;SDS011;7686;52.184;9.280;2023-02-26T08:25:11;4.13;;;1.00;;
15171;SDS011;7686;52.184;9.280;2023-02-26T08:27:38;1.67;;;1.00;;
15171;SDS011;7686;52.184;9.280;2023-02-26T08:30:05;1.70;;;1.08;;
15171;SDS011;7686;52.184;9.280;2023-02-26T08:32:32;2.40;;;1.08;;
15171;SDS011;7686;52.184;9.280;2023-02-26T08:35:00;2.05;;;1.15;;
15171;SDS011;7686;52.184;9.280;2023-02-26T08:37:26;2.15;;;1.17;;
15171;SDS011;7686;52.184;9.280;2023-02-26T08:39:53;1.45;;;0.90;;
15171;SDS011;7686;52.184;9.280;2023-02-26T08:42:19;1.85;;;1.08;;
15171;SDS011;7686;52.184;9.280;2023-02-26T08:44:46;1.67;;;0.70;;
15171;SDS011;7686;52.184;9.280;2023-02-26T08:47:13;0.80;;;0.80;;
15171;SDS011;7686;52.184;9.280;2023-02-26T08:49:49;2.15;;;0.73;;
15171;SDS011;7686;52.184;9.280;2023-02-26T08:52:16;2.87;;;1.00;;
15171;SDS011;7686;52.184;9.280;2023-02-26T08:54:42;1.73;;;0.97;;
15171;SDS011;7686;52.184;9.280;2023-02-26T08:57:09;1.57;;;0.90;;
15171;SDS011;7686;52.184;9.280;2023-02-26T08:59:36;1.13;;;0.73;;
15171;SDS011;7686;52.184;9.280;2023-02-26T09:02:02;1.07;;;0.50;;
15171;SDS011;7686;52.184;9.280;2023-02-26T09:04:29;1.00;;;0.70;;
15171;SDS011;7686;52.184;9.280;2023-02-26T09:06:56;1.60;;;0.77;;
15171;SDS011;7686;52.184;9.280;2023-02-26T09:09:23;0.67;;;0.50;;
15171;SDS011;7686;52.184;9.280;2023-02-26T09:11:49;0.67;;;0.50;;
15171;SDS011;7686;52.184;9.280;2023-02-26T09:14:16;0.97;;;0.70;;
15171;SDS011;7686;52.184;9.280;2023-02-26T09:16:43;0.80;;;0.60;;
15171;SDS011;7686;52.184;9.280;2023-02-26T09:19:09;1.23;;;0.60;;
15171;SDS011;7686;52.184;9.280;2023-02-26T09:21:36;1.20;;;0.60;;
15171;SDS011;7686;52.184;9.280;2023-02-26T09:24:03;1.30;;;0.70;;
15171;SDS011;7686;52.184;9.280;2023-02-26T09:26:29;2.47;;;0.80;;
15171;SDS011;7686;52.184;9.280;2023-02-26T09:28:56;1.02;;;0.65;;
15171;SDS011;7686;52.184;9.280;2023-02-26T09:31:22;0.65;;;0.60;;
15171;SDS011;7686;52.184;9.280;2023-02-26T09:33:49;1.70;;;0.75;;
15171;SDS011;7686;52.184;9.280;2023-02-26T09:36:16;1.08;;;0.60;;
15171;SDS011;7686;52.184;9.280;2023-02-26T09:38:43;1.17;;;0.60;;
15171;SDS011;7686;52.184;9.280;2023-02-26T09:41:15;0.70;;;0.70;;
15171;SDS011;7686;52.184;9.280;2023-02-26T09:52:28;1.35;;;0.70;;
15171;SDS011;7686;52.184;9.280;2023-02-26T09:55:00;2.05;;;0.85;;
15171;SDS011;7686;52.184;9.280;2023-02-26T09:57:32;0.80;;;0.70;;
15171;SDS011;7686;52.184;9.280;2023-02-26T10:00:23;0.95;;;0.63;;
15171;SDS011;7686;52.184;9.280;2023-02-26T10:03:36;1.35;;;0.68;;
15171;SDS011;7686;52.184;9.280;2023-02-26T10:06:17;0.70;;;0.60;;
15171;SDS011;7686;52.184;9.280;2023-02-26T10:20:23;1.98;;;0.68;;
15171;SDS011;7686;52.184;9.280;2023-02-26T10:25:39;0.95;;;0.68;;
15171;SDS011;7686;52.184;9.280;2023-02-26T10:30:53;1.42;;;0.70;;
15171;SDS011;7686;52.184;9.280;2023-02-26T10:36:03;2.13;;;0.88;;
15171;SDS011;7686;52.184;9.280;2023-02-26T10:38:42;1.58;;;0.70;;
15171;SDS011;7686;52.184;9.280;2023-02-26T10:41:12;0.95;;;0.63;;
15171;SDS011;7686;52.184;9.280;2023-02-26T10:44:17;2.67;;;1.25;;
15171;SDS011;7686;52.184;9.280;2023-02-26T10:46:50;2.25;;;0.68;;
15171;SDS011;7686;52.184;9.280;2023-02-26T10:49:55;1.77;;;0.60;;
15171;SDS011;7686;52.184;9.280;2023-02-26T10:52:29;2.15;;;0.70;;
15171;SDS011;7686;52.184;9.280;2023-02-26T10:57:39;1.10;;;0.70;;
15171;SDS011;7686;52.184;9.280;2023-02-26T11:00:17;1.48;;;0.70;;
15171;SDS011;7686;52.184;9.280;2023-02-26T11:02:46;1.23;;;0.60;;
15171;SDS011;7686;52.184;9.280;2023-02-26T11:05:18;3.85;;;0.95;;
15171;SDS011;7686;52.184;9.280;2023-02-26T11:07:50;1.15;;;0.60;;
15171;SDS011;7686;52.184;9.280;2023-02-26T11:10:25;0.75;;;0.57;;
15171;SDS011;7686;52.184;9.280;2023-02-26T11:13:00;1.75;;;0.90;;
15171;SDS011;7686;52.184;9.280;2023-02-26T11:15:29;2.03;;;0.70;;
15171;SDS011;7686;52.184;9.280;2023-02-26T11:17:57;0.98;;;0.70;;
15171;SDS011;7686;52.184;9.280;2023-02-26T11:23:01;1.98;;;0.60;;
15171;SDS011;7686;52.184;9.280;2023-02-26T11:25:31;1.38;;;0.65;;
15171;SDS011;7686;52.184;9.280;2023-02-26T11:28:02;2.22;;;0.73;;
15171;SDS011;7686;52.184;9.280;2023-02-26T11:30:36;2.33;;;0.63;;
15171;SDS011;7686;52.184;9.280;2023-02-26T11:33:06;0.57;;;0.57;;
15171;SDS011;7686;52.184;9.280;2023-02-26T11:35:43;1.23;;;0.70;;
15171;SDS011;7686;52.184;9.280;2023-02-26T11:38:14;1.60;;;0.55;;
15171;SDS011;7686;52.184;9.280;2023-02-26T11:40:46;0.85;;;0.57;;
15171;SDS011;7686;52.184;9.280;2023-02-26T11:43:16;1.65;;;0.90;;
15171;SDS011;7686;52.184;9.280;2023-02-26T11:45:51;1.15;;;0.70;;
15171;SDS011;7686;52.184;9.280;2023-02-26T11:48:24;2.25;;;0.68;;
15171;SDS011;7686;52.184;9.280;2023-02-26T11:50:56;3.00;;;0.85;;
15171;SDS011;7686;52.184;9.280;2023-02-26T11:53:36;0.70;;;0.60;;
15171;SDS011;7686;52.184;9.280;2023-02-26T11:56:12;1.83;;;0.68;;
15171;SDS011;7686;52.184;9.280;2023-02-26T11:58:42;2.00;;;0.60;;
15171;SDS011;7686;52.184;9.280;2023-02-26T12:01:12;1.67;;;0.52;;
15171;SDS011;7686;52.184;9.280;2023-02-26T12:03:43;1.48;;;0.70;;
15171;SDS011;7686;52.184;9.280;2023-02-26T12:06:17;0.63;;;0.52;;
15171;SDS011;7686;52.184;9.280;2023-02-26T12:08:46;1.20;;;0.50;;
15171;SDS011;7686;52.184;9.280;2023-02-26T12:17:23;0.80;;;0.60;;
15171;SDS011;7686;52.184;9.280;2023-02-26T12:22:50;2.60;;;0.80;;
15171;SDS011;7686;52.184;9.280;2023-02-26T12:25:38;2.45;;;0.68;;
15171;SDS011;7686;52.184;9.280;2023-02-26T12:36:49;2.20;;;0.60;;
15171;SDS011;7686;52.184;9.280;2023-02-26T12:40:04;2.25;;;0.60;;
15171;SDS011;7686;52.184;9.280;2023-02-26T12:43:01;2.60;;;0.82;;
15171;SDS011;7686;52.184;9.280;2023-02-26T12:46:33;5.85;;;0.80;;
15171;SDS011;7686;52.184;9.280;2023-02-26T12:48:49;2.08;;;0.73;;
15171;SDS011;7686;52.184;9.280;2023-02-26T12:57:56;3.42;;;1.00;;
15171;SDS011;7686;52.184;9.280;2023-02-26T13:09:13;1.77;;;0.70;;
15171;SDS011;7686;52.184;9.280;2023-02-26T13:14:42;1.23;;;0.63;;
15171;SDS011;7686;52.184;9.280;2023-02-26T13:17:21;4.13;;;0.80;;
15171;SDS011;7686;52.184;9.280;2023-02-26T13:22:50;2.03;;;0.70;;
15171;SDS011;7686;52.184;9.280;2023-02-26T13:27:56;2.22;;;0.70;;
15171;SDS011;7686;52.184;9.280;2023-02-26T13:30:33;2.30;;;0.65;;
15171;SDS011;7686;52.184;9.280;2023-02-26T13:33:06;3.67;;;0.90;;
15171;SDS011;7686;52.184;9.280;2023-02-26T13:35:43;2.75;;;0.80;;
15171;SDS011;7686;52.184;9.280;2023-02-26T13:38:18;6.90;;;1.10;;
15171;SDS011;7686;52.184;9.280;2023-02-26T13:41:04;2.95;;;0.80;;
15171;SDS011;7686;52.184;9.280;2023-02-26T13:48:44;1.52;;;0.70;;
15171;SDS011;7686;52.184;9.280;2023-02-26T13:56:41;4.38;;;0.80;;
15171;SDS011;7686;52.184;9.280;2023-02-26T14:01:59;5.15;;;0.98;;
15171;SDS011;7686;52.184;9.280;2023-02-26T14:04:56;1.95;;;0.70;;
15171;SDS011;7686;52.184;9.280;2023-02-26T14:10:15;3.17;;;0.70;;
15171;SDS011;7686;52.184;9.280;2023-02-26T14:13:01;2.00;;;0.60;;
15171;SDS011;7686;52.184;9.280;2023-02-26T14:15:41;1.88;;;0.63;;
15171;SDS011;7686;52.184;9.280;2023-02-26T14:18:19;2.92;;;0.85;;
15171;SDS011;7686;52.184;9.280;2023-02-26T14:23:50;2.22;;;0.80;;
15171;SDS011;7686;52.184;9.280;2023-02-26T14:26:22;3.05;;;0.82;;
15171;SDS011;7686;52.184;9.280;2023-02-26T14:28:54;3.53;;;0.77;;
15171;SDS011;7686;52.184;9.280;2023-02-26T14:31:21;1.85;;;0.80;;
15171;SDS011;7686;52.184;9.280;2023-02-26T14:36:40;2.75;;;0.80;;
15171;SDS011;7686;52.184;9.280;2023-02-26T14:39:30;1.92;;;0.85;;
15171;SDS011;7686;52.184;9.280;2023-02-26T14:42:03;1.58;;;0.70;;
15171;SDS011;7686;52.184;9.280;2023-02-26T14:44:38;1.95;;;0.70;;
15171;SDS011;7686;52.184;9.280;2023-02-26T14:47:08;0.90;;;0.50;;
15171;SDS011;7686;52.184;9.280;2023-02-26T14:49:36;2.17;;;0.60;;
15171;SDS011;7686;52.184;9.280;2023-02-26T14:58:05;1.55;;;0.57;;
15171;SDS011;7686;52.184;9.280;2023-02-26T15:03:57;2.10;;;0.88;;
15171;SDS011;7686;52.184;9.280;2023-02-26T15:15:21;2.10;;;0.90;;
15171;SDS011;7686;52.184;9.280;2023-02-26T15:20:57;2.17;;;0.90;;
15171;SDS011;7686;52.184;9.280;2023-02-26T15:23:37;1.88;;;0.77;;
15171;SDS011;7686;52.184;9.280;2023-02-26T15:26:04;1.55;;;0.77;;
15171;SDS011;7686;52.184;9.280;2023-02-26T15:28:35;2.72;;;0.90;;
15171;SDS011;7686;52.184;9.280;2023-02-26T15:31:05;2.25;;;0.93;;
15171;SDS011;7686;52.184;9.280;2023-02-26T15:33:33;1.02;;;0.60;;
15171;SDS011;7686;52.184;9.280;2023-02-26T15:36:03;2.28;;;0.85;;
15171;SDS011;7686;52.184;9.280;2023-02-26T15:38:39;1.63;;;0.73;;
15171;SDS011;7686;52.184;9.280;2023-02-26T15:41:07;2.08;;;0.90;;
15171;SDS011;7686;52.184;9.280;2023-02-26T15:43:34;2.70;;;0.90;;
15171;SDS011;7686;52.184;9.280;2023-02-26T15:46:01;2.55;;;0.90;;
15171;SDS011;7686;52.184;9.280;2023-02-26T15:48:30;1.67;;;0.90;;
15171;SDS011;7686;52.184;9.280;2023-02-26T15:51:02;1.98;;;0.90;;
15171;SDS011;7686;52.184;9.280;2023-02-26T15:53:47;1.25;;;0.70;;
15171;SDS011;7686;52.184;9.280;2023-02-26T15:56:17;1.88;;;0.85;;
15171;SDS011;7686;52.184;9.280;2023-02-26T15:58:49;1.67;;;0.73;;
15171;SDS011;7686;52.184;9.280;2023-02-26T16:01:20;4.60;;;0.98;;
15171;SDS011;7686;52.184;9.280;2023-02-26T16:03:51;1.70;;;0.80;;
15171;SDS011;7686;52.184;9.280;2023-02-26T16:06:27;1.88;;;0.90;;
15171;SDS011;7686;52.184;9.280;2023-02-26T16:08:59;1.88;;;0.73;;
15171;SDS011;7686;52.184;9.280;2023-02-26T16:11:27;5.25;;;0.75;;
15171;SDS011;7686;52.184;9.280;2023-02-26T16:13:59;2.42;;;0.60;;
15171;SDS011;7686;52.184;9.280;2023-02-26T16:16:27;2.42;;;0.80;;
15171;SDS011;7686;52.184;9.280;2023-02-26T16:19:15;1.38;;;0.85;;
15171;SDS011;7686;52.184;9.280;2023-02-26T16:21:45;2.75;;;0.90;;
15171;SDS011;7686;52.184;9.280;2023-02-26T16:24:14;2.08;;;0.70;;
15171;SDS011;7686;52.184;9.280;2023-02-26T16:26:45;1.85;;;0.70;;
15171;SDS011;7686;52.184;9.280;2023-02-26T16:29:20;3.70;;;0.90;;
15171;SDS011;7686;52.184;9.280;2023-02-26T16:31:53;1.08;;;0.77;;
15171;SDS011;7686;52.184;9.280;2023-02-26T16:47:51;2.10;;;0.80;;
15171;SDS011;7686;52.184;9.280;2023-02-26T16:50:22;4.97;;;0.90;;
15171;SDS011;7686;52.184;9.280;2023-02-26T16:52:59;3.00;;;0.90;;
15171;SDS011;7686;52.184;9.280;2023-02-26T16:55:33;3.50;;;1.02;;
15171;SDS011;7686;52.184;9.280;2023-02-26T16:58:03;1.65;;;0.90;;
15171;SDS011;7686;52.184;9.280;2023-02-26T17:00:34;1.77;;;0.90;;
15171;SDS011;7686;52.184;9.280;2023-02-26T17:03:06;3.15;;;1.10;;
15171;SDS011;7686;52.184;9.280;2023-02-26T17:05:40;2.55;;;0.93;;
15171;SDS011;7686;52.184;9.280;2023-02-26T17:10:48;1.58;;;0.93;;
15171;SDS011;7686;52.184;9.280;2023-02-26T17:13:26;1.52;;;0.80;;
15171;SDS011;7686;52.184;9.280;2023-02-26T17:15:58;2.05;;;0.82;;
15171;SDS011;7686;52.184;9.280;2023-02-26T17:18:29;0.95;;;0.75;;
15171;SDS011;7686;52.184;9.280;2023-02-26T17:20:56;2.60;;;0.85;;
15171;SDS011;7686;52.184;9.280;2023-02-26T17:23:25;3.17;;;1.00;;
15171;SDS011;7686;52.184;9.280;2023-02-26T17:25:56;1.48;;;1.00;;
15171;SDS011;7686;52.184;9.280;2023-02-26T17:28:34;3.38;;;1.05;;
15171;SDS011;7686;52.184;9.280;2023-02-26T17:31:05;1.63;;;1.00;;
15171;SDS011;7686;52.184;9.280;2023-02-26T17:33:32;2.05;;;0.88;;
15171;SDS011;7686;52.184;9.280;2023-02-26T17:36:01;1.90;;;0.80;;
15171;SDS011;7686;52.184;9.280;2023-02-26T17:38:29;3.15;;;0.80;;
15171;SDS011;7686;52.184;9.280;2023-02-26T17:40:58;1.30;;;0.73;;
15171;SDS011;7686;52.184;9.280;2023-02-26T17:43:25;2.72;;;0.80;;
15171;SDS011;7686;52.184;9.280;2023-02-26T17:45:53;3.47;;;1.00;;
15171;SDS011;7686;52.184;9.280;2023-02-26T17:48:20;2.58;;;0.80;;
15171;SDS011;7686;52.184;9.280;2023-02-26T17:50:51;1.98;;;0.80;;
15171;SDS011;7686;52.184;9.280;2023-02-26T17:53:20;2.08;;;0.82;;
15171;SDS011;7686;52.184;9.280;2023-02-26T17:55:49;1.20;;;0.80;;
15171;SDS011;7686;52.184;9.280;2023-02-26T17:58:25;1.95;;;0.90;;
15171;SDS011;7686;52.184;9.280;2023-02-26T18:00:54;2.17;;;0.80;;
15171;SDS011;7686;52.184;9.280;2023-02-26T18:03:21;1.42;;;0.98;;
15171;SDS011;7686;52.184;9.280;2023-02-26T18:05:48;1.73;;;0.90;;
15171;SDS011;7686;52.184;9.280;2023-02-26T18:08:23;2.53;;;0.73;;
15171;SDS011;7686;52.184;9.280;2023-02-26T18:10:52;1.30;;;0.75;;
15171;SDS011;7686;52.184;9.280;2023-02-26T18:13:20;2.05;;;0.80;;
15171;SDS011;7686;52.184;9.280;2023-02-26T18:15:46;2.60;;;0.75;;
15171;SDS011;7686;52.184;9.280;2023-02-26T18:18:14;1.50;;;0.90;;
15171;SDS011;7686;52.184;9.280;2023-02-26T18:20:41;2.58;;;0.80;;
15171;SDS011;7686;52.184;9.280;2023-02-26T18:23:09;2.45;;;0.90;;